Time;durP1;ratioP1;P1;durP2;ratioP2;P2;SDS_P1;SDS_P2;PMS_P1;PMS_P2;Temp;Humidity;BMP_temperature;BMP_pressure;BME280_temperature;BME280_humidity;BME280_pressure;Samples;Min_cycle;Max_cycle;Signal;HPM_P1;HPM_P2
2022/07/14 00:00:44;;;;;;;2.40;1.15;;;;;;;;;;5021670;28;20148;-80
2022/07/14 00:03:09;;;;;;;1.92;1.08;;;;;;;;;;5028373;28;20399;-80
2022/07/14 00:05:35;;;;;;;2.55;1.38;;;;;;;;;;5022078;28;20029;-80
2022/07/14 00:08:01;;;;;;;2.80;1.38;;;;;;;;;;5029112;28;20484;-80
2022/07/14 00:10:30;;;;;;;2.47;1.17;;;;;;;;;;5021804;28;20037;-80
2022/07/14 00:12:55;;;;;;;2.85;1.27;;;;;;;;;;5027383;28;20029;-81
2022/07/14 00:15:21;;;;;;;2.60;1.40;;;;;;;;;;5021795;28;20035;-81
2022/07/14 00:17:46;;;;;;;2.92;1.30;;;;;;;;;;5020940;28;20500;-79
2022/07/14 00:20:12;;;;;;;2.67;1.35;;;;;;;;;;5028261;28;20051;-79
2022/07/14 00:22:40;;;;;;;2.90;1.50;;;;;;;;;;5028955;28;20408;-80
2022/07/14 00:25:06;;;;;;;3.55;1.35;;;;;;;;;;5024299;28;20041;-82
2022/07/14 00:27:32;;;;;;;2.53;1.20;;;;;;;;;;5031039;28;20404;-81
2022/07/14 00:29:57;;;;;;;2.33;1.20;;;;;;;;;;5017717;28;20037;-80
2022/07/14 00:32:23;;;;;;;2.72;1.40;;;;;;;;;;5029074;28;20025;-80
2022/07/14 00:34:49;;;;;;;2.35;1.35;;;;;;;;;;5024010;28;20049;-80
2022/07/14 00:37:14;;;;;;;2.45;1.30;;;;;;;;;;5027734;28;20084;-80
2022/07/14 00:39:54;;;;;;;2.42;1.30;;;;;;;;;;5040377;28;20048;-79
2022/07/14 00:42:35;;;;;;;3.20;1.30;;;;;;;;;;5041792;28;20078;-80
2022/07/14 00:45:06;;;;;;;3.42;1.60;;;;;;;;;;5011123;28;20034;-80
2022/07/14 00:47:32;;;;;;;2.53;1.20;;;;;;;;;;5030985;28;20037;-80
2022/07/14 00:49:58;;;;;;;2.80;1.30;;;;;;;;;;5021648;28;20513;-80
2022/07/14 00:52:24;;;;;;;2.75;1.20;;;;;;;;;;5023790;28;20508;-80
2022/07/14 00:54:50;;;;;;;2.10;1.20;;;;;;;;;;5024190;28;20028;-80
2022/07/14 00:57:16;;;;;;;2.38;1.25;;;;;;;;;;5024214;28;20045;-81
2022/07/14 00:59:41;;;;;;;2.78;1.30;;;;;;;;;;5037763;28;20045;-80
2022/07/14 01:02:07;;;;;;;2.40;1.15;;;;;;;;;;5023600;28;20041;-80
2022/07/14 01:04:32;;;;;;;2.83;1.20;;;;;;;;;;5014684;28;20072;-80
2022/07/14 01:06:57;;;;;;;2.45;1.20;;;;;;;;;;5018374;28;20047;-80
2022/07/14 01:09:26;;;;;;;2.53;1.35;;;;;;;;;;5041118;28;20404;-81
2022/07/14 01:11:51;;;;;;;2.50;1.30;;;;;;;;;;5024259;28;20634;-80
2022/07/14 01:14:17;;;;;;;2.30;1.10;;;;;;;;;;5039210;28;20029;-80
2022/07/14 01:16:42;;;;;;;3.08;1.73;;;;;;;;;;5038242;28;20074;-79
2022/07/14 01:19:08;;;;;;;2.63;1.30;;;;;;;;;;5027606;28;20032;-80
2022/07/14 01:21:34;;;;;;;2.47;1.33;;;;;;;;;;5030895;28;20036;-80
2022/07/14 01:23:59;;;;;;;2.80;1.33;;;;;;;;;;5040634;28;20048;-80
2022/07/14 01:26:25;;;;;;;2.92;1.20;;;;;;;;;;5030826;28;20029;-80
2022/07/14 01:28:50;;;;;;;3.53;1.30;;;;;;;;;;5038218;28;20068;-80
2022/07/14 01:31:15;;;;;;;2.55;1.13;;;;;;;;;;5029992;28;20029;-80
2022/07/14 01:33:41;;;;;;;3.38;1.58;;;;;;;;;;5023728;28;20488;-80
2022/07/14 01:36:06;;;;;;;2.53;1.23;;;;;;;;;;5030038;28;20029;-80
2022/07/14 01:38:32;;;;;;;3.35;1.35;;;;;;;;;;5037192;28;20037;-80
2022/07/14 01:40:57;;;;;;;2.72;1.27;;;;;;;;;;5037039;28;20061;-80
2022/07/14 01:43:22;;;;;;;3.08;1.25;;;;;;;;;;5025735;28;20055;-79
2022/07/14 01:45:48;;;;;;;2.80;1.33;;;;;;;;;;5025275;28;20037;-79
2022/07/14 01:48:13;;;;;;;5.53;1.50;;;;;;;;;;5038453;28;20040;-79
2022/07/14 01:50:38;;;;;;;3.30;1.35;;;;;;;;;;5012402;28;20043;-79
2022/07/14 01:53:03;;;;;;;2.42;1.33;;;;;;;;;;5029929;28;20033;-80
2022/07/14 01:55:29;;;;;;;2.83;1.30;;;;;;;;;;5020690;28;20500;-80
2022/07/14 01:57:54;;;;;;;2.70;1.25;;;;;;;;;;5037849;28;20095;-80
2022/07/14 02:00:19;;;;;;;4.10;1.30;;;;;;;;;;5020795;28;20044;-80
2022/07/14 02:02:45;;;;;;;2.40;1.10;;;;;;;;;;5019642;28;20029;-79
2022/07/14 02:05:10;;;;;;;2.75;1.20;;;;;;;;;;5023978;28;20074;-80
2022/07/14 02:07:38;;;;;;;2.35;1.10;;;;;;;;;;5036411;28;20037;-80
2022/07/14 02:12:49;;;;;;;2.10;0.95;;;;;;;;;;5041880;28;20133;-80
2022/07/14 02:15:14;;;;;;;5.00;1.88;;;;;;;;;;5029920;28;20487;-81
2022/07/14 02:17:40;;;;;;;2.78;1.50;;;;;;;;;;5018756;28;20056;-79
2022/07/14 02:20:07;;;;;;;3.55;1.30;;;;;;;;;;5006822;28;20064;-80
2022/07/14 02:22:33;;;;;;;3.03;1.30;;;;;;;;;;5023549;28;20040;-79
2022/07/14 02:24:58;;;;;;;2.42;1.10;;;;;;;;;;5020862;28;20032;-79
2022/07/14 02:27:23;;;;;;;2.72;1.10;;;;;;;;;;5037095;28;20040;-80
2022/07/14 02:29:49;;;;;;;2.42;1.17;;;;;;;;;;5030526;28;20056;-80
2022/07/14 02:32:14;;;;;;;2.25;1.20;;;;;;;;;;5021431;28;20032;-80
2022/07/14 02:34:39;;;;;;;2.30;1.30;;;;;;;;;;5020613;28;20527;-80
2022/07/14 02:37:05;;;;;;;2.63;1.00;;;;;;;;;;5029115;28;20043;-80
2022/07/14 02:39:30;;;;;;;3.03;1.10;;;;;;;;;;5037581;28;20510;-80
2022/07/14 02:41:56;;;;;;;2.70;1.25;;;;;;;;;;5024527;28;20436;-80
2022/07/14 02:44:21;;;;;;;4.72;1.27;;;;;;;;;;5023304;28;20491;-80
2022/07/14 02:46:49;;;;;;;3.40;0.90;;;;;;;;;;5036340;28;20055;-80
2022/07/14 02:49:15;;;;;;;3.67;1.10;;;;;;;;;;5029603;28;20033;-80
2022/07/14 02:51:40;;;;;;;2.72;1.00;;;;;;;;;;5017938;28;20146;-80
2022/07/14 02:54:05;;;;;;;8.48;1.63;;;;;;;;;;5024973;28;20102;-81
2022/07/14 02:56:31;;;;;;;3.53;1.35;;;;;;;;;;5028113;28;20062;-81
2022/07/14 02:58:56;;;;;;;3.13;1.33;;;;;;;;;;5036760;28;20124;-79
2022/07/14 03:01:22;;;;;;;3.45;0.98;;;;;;;;;;5035960;28;20036;-80
2022/07/14 03:03:47;;;;;;;2.78;0.88;;;;;;;;;;5017562;28;20461;-80
2022/07/14 03:06:17;;;;;;;3.70;1.20;;;;;;;;;;5026269;28;20032;-80
2022/07/14 03:08:43;;;;;;;3.17;0.90;;;;;;;;;;5032247;28;20420;-80
2022/07/14 03:11:08;;;;;;;2.30;0.88;;;;;;;;;;5024071;28;20033;-80
2022/07/14 03:13:35;;;;;;;2.75;1.00;;;;;;;;;;5034431;28;20496;-80
2022/07/14 03:16:01;;;;;;;3.60;1.23;;;;;;;;;;5034698;28;20028;-79
2022/07/14 03:18:27;;;;;;;5.47;1.13;;;;;;;;;;5033995;28;20119;-80
2022/07/14 03:20:52;;;;;;;2.75;1.27;;;;;;;;;;5043957;28;20117;-80
2022/07/14 03:23:19;;;;;;;2.55;1.08;;;;;;;;;;5028680;28;20032;-79
2022/07/14 03:25:45;;;;;;;3.53;1.30;;;;;;;;;;5038913;28;20033;-80
2022/07/14 03:28:11;;;;;;;3.78;1.30;;;;;;;;;;5030332;28;20402;-79
2022/07/14 03:30:36;;;;;;;3.58;1.40;;;;;;;;;;5004299;28;20065;-80
2022/07/14 03:33:01;;;;;;;3.03;1.33;;;;;;;;;;5021079;28;20044;-80
2022/07/14 03:35:29;;;;;;;3.00;0.88;;;;;;;;;;5028080;28;20175;-79
2022/07/14 03:37:55;;;;;;;;;;;;;;;;;;5036790;28;20029;-80
2022/07/14 03:40:20;;;;;;;4.50;1.27;;;;;;;;;;5035700;28;19920;-80
2022/07/14 03:42:47;;;;;;;5.50;1.60;;;;;;;;;;5027148;28;20037;-79
2022/07/14 03:45:12;;;;;;;2.35;0.90;;;;;;;;;;5023746;28;20037;-80
2022/07/14 03:47:37;;;;;;;3.22;1.10;;;;;;;;;;5025718;28;20086;-80
2022/07/14 03:50:03;;;;;;;3.20;1.23;;;;;;;;;;5022452;28;20039;-79
2022/07/14 03:52:29;;;;;;;4.57;1.60;;;;;;;;;;5033643;28;20494;-80
2022/07/14 03:54:54;;;;;;;4.68;1.00;;;;;;;;;;5038179;28;20044;-80
2022/07/14 03:57:19;;;;;;;2.40;1.00;;;;;;;;;;5033341;28;20033;-80
2022/07/14 03:59:45;;;;;;;8.27;1.58;;;;;;;;;;5027231;28;20444;-79
2022/07/14 04:02:11;;;;;;;3.65;1.08;;;;;;;;;;5019508;28;20092;-80
2022/07/14 04:04:37;;;;;;;3.47;0.90;;;;;;;;;;5037905;28;20428;-79
2022/07/14 04:07:03;;;;;;;7.30;1.08;;;;;;;;;;5036866;28;20102;-79
2022/07/14 04:09:29;;;;;;;3.95;1.45;;;;;;;;;;5022423;28;20028;-79
2022/07/14 04:11:54;;;;;;;3.30;1.13;;;;;;;;;;5036099;28;20063;-81
2022/07/14 04:14:20;;;;;;;4.68;1.27;;;;;;;;;;5032063;28;20167;-79
2022/07/14 04:16:45;;;;;;;2.05;0.93;;;;;;;;;;5022409;28;20403;-80
2022/07/14 04:19:11;;;;;;;6.03;1.17;;;;;;;;;;5014350;28;20908;-79
2022/07/14 04:21:36;;;;;;;5.20;1.15;;;;;;;;;;5024551;28;20041;-80
2022/07/14 04:24:03;;;;;;;2.53;0.82;;;;;;;;;;5037232;28;20116;-79
2022/07/14 04:26:29;;;;;;;4.13;1.13;;;;;;;;;;5042436;28;20106;-79
2022/07/14 04:28:54;;;;;;;3.10;0.90;;;;;;;;;;5032916;28;20029;-81
2022/07/14 04:31:20;;;;;;;4.68;1.30;;;;;;;;;;5024615;28;20094;-79
2022/07/14 04:33:46;;;;;;;4.95;0.98;;;;;;;;;;5037075;28;20038;-79
2022/07/14 04:36:11;;;;;;;4.88;1.20;;;;;;;;;;5031226;28;20072;-79
2022/07/14 04:38:36;;;;;;;4.13;1.20;;;;;;;;;;5044138;28;20025;-79
2022/07/14 04:41:02;;;;;;;5.10;1.23;;;;;;;;;;5024645;28;20124;-80
2022/07/14 04:43:27;;;;;;;5.43;1.08;;;;;;;;;;5024054;28;20222;-79
2022/07/14 04:45:53;;;;;;;3.88;1.35;;;;;;;;;;5013552;28;20485;-80
2022/07/14 04:48:19;;;;;;;3.50;0.82;;;;;;;;;;5016741;28;20033;-79
2022/07/14 04:53:28;;;;;;;3.08;0.75;;;;;;;;;;5041648;28;20174;-80
2022/07/14 04:55:53;;;;;;;3.65;0.88;;;;;;;;;;5040035;28;20155;-80
2022/07/14 04:58:19;;;;;;;4.40;1.10;;;;;;;;;;5039448;28;20025;-80
2022/07/14 05:00:44;;;;;;;6.03;1.20;;;;;;;;;;5038424;28;20047;-79
2022/07/14 05:03:10;;;;;;;3.92;1.23;;;;;;;;;;5032072;28;20542;-79
2022/07/14 05:05:35;;;;;;;3.83;1.00;;;;;;;;;;5038034;28;20514;-80
2022/07/14 05:08:01;;;;;;;4.15;0.80;;;;;;;;;;5039288;28;20549;-80
2022/07/14 05:10:29;;;;;;;3.28;1.52;;;;;;;;;;5031736;28;20028;-79
2022/07/14 05:12:54;;;;;;;4.68;1.00;;;;;;;;;;5024638;28;20250;-80
2022/07/14 05:15:20;;;;;;;4.00;1.30;;;;;;;;;;5012058;28;20101;-79
2022/07/14 05:17:45;;;;;;;4.38;1.05;;;;;;;;;;5027528;28;20109;-79
2022/07/14 05:20:11;;;;;;;4.43;1.10;;;;;;;;;;5039897;28;20045;-79
2022/07/14 05:22:38;;;;;;;3.58;1.10;;;;;;;;;;5034539;28;20112;-80
2022/07/14 05:25:10;;;;;;;2.90;1.30;;;;;;;;;;5040131;28;20083;-80
2022/07/14 05:27:36;;;;;;;3.78;1.23;;;;;;;;;;5031182;28;20033;-80
2022/07/14 05:30:06;;;;;;;5.50;1.15;;;;;;;;;;5024285;28;20082;-80
2022/07/14 05:32:32;;;;;;;5.20;1.38;;;;;;;;;;5027945;28;20081;-80
2022/07/14 05:34:58;;;;;;;3.35;0.95;;;;;;;;;;5042267;28;20036;-80
2022/07/14 05:37:24;;;;;;;4.68;1.00;;;;;;;;;;5028049;28;20033;-80
2022/07/14 05:39:49;;;;;;;3.03;0.90;;;;;;;;;;5038838;28;20052;-82
2022/07/14 05:42:14;;;;;;;5.38;1.02;;;;;;;;;;5035305;28;20497;-79
2022/07/14 05:44:40;;;;;;;2.42;0.70;;;;;;;;;;5036951;28;20041;-79
2022/07/14 05:47:05;;;;;;;3.42;1.00;;;;;;;;;;5030115;28;20098;-80
2022/07/14 05:49:31;;;;;;;3.15;0.88;;;;;;;;;;5037393;28;20032;-80
2022/07/14 05:51:56;;;;;;;3.58;0.90;;;;;;;;;;5024626;28;20036;-80
2022/07/14 05:54:21;;;;;;;5.13;1.40;;;;;;;;;;5037787;28;20045;-81
2022/07/14 05:56:47;;;;;;;5.25;1.00;;;;;;;;;;5012231;28;20029;-79
2022/07/14 05:59:12;;;;;;;3.20;0.60;;;;;;;;;;5018339;28;20800;-80
2022/07/14 06:01:38;;;;;;;2.60;0.95;;;;;;;;;;5016181;28;20041;-80
2022/07/14 06:04:04;;;;;;;4.07;1.10;;;;;;;;;;5021869;28;20036;-79
2022/07/14 06:06:29;;;;;;;2.40;0.80;;;;;;;;;;5029786;28;20479;-80
2022/07/14 06:08:55;;;;;;;4.55;0.73;;;;;;;;;;5037085;28;20126;-80
2022/07/14 06:11:21;;;;;;;2.97;0.80;;;;;;;;;;5029782;28;20036;-80
2022/07/14 06:13:46;;;;;;;3.67;0.90;;;;;;;;;;5030563;28;20029;-80
2022/07/14 06:16:12;;;;;;;3.95;1.27;;;;;;;;;;5029332;28;20105;-80
2022/07/14 06:18:37;;;;;;;3.50;0.80;;;;;;;;;;5037744;28;20039;-80
2022/07/14 06:21:09;;;;;;;5.43;1.08;;;;;;;;;;5024692;28;20040;-80
2022/07/14 06:23:35;;;;;;;2.95;0.75;;;;;;;;;;5020469;28;20037;-79
2022/07/14 06:26:07;;;;;;;1.92;0.65;;;;;;;;;;5037013;28;20044;-80
2022/07/14 06:28:32;;;;;;;2.53;0.70;;;;;;;;;;5024106;28;20043;-79
2022/07/14 06:31:00;;;;;;;2.95;0.73;;;;;;;;;;5019444;28;20036;-80
2022/07/14 06:33:26;;;;;;;1.73;0.60;;;;;;;;;;5014034;28;20601;-80
2022/07/14 06:35:51;;;;;;;3.33;0.77;;;;;;;;;;5028472;28;20800;-80
2022/07/14 06:38:17;;;;;;;1.88;0.70;;;;;;;;;;5030045;28;20128;-80
2022/07/14 06:40:42;;;;;;;3.92;0.90;;;;;;;;;;5025847;28;20067;-81
2022/07/14 06:43:08;;;;;;;3.35;0.98;;;;;;;;;;5023510;28;20047;-81
2022/07/14 06:45:34;;;;;;;5.43;0.90;;;;;;;;;;5036640;28;20040;-81
2022/07/14 06:47:59;;;;;;;3.10;0.70;;;;;;;;;;5023736;28;20029;-81
2022/07/14 06:50:25;;;;;;;3.53;1.10;;;;;;;;;;5036390;28;20548;-82
2022/07/14 06:52:50;;;;;;;3.45;0.75;;;;;;;;;;5030536;28;20044;-81
2022/07/14 06:55:16;;;;;;;2.88;0.80;;;;;;;;;;5035370;28;20469;-81
2022/07/14 06:57:42;;;;;;;1.90;0.40;;;;;;;;;;5027694;28;20029;-82
2022/07/14 07:00:08;;;;;;;2.40;0.82;;;;;;;;;;5023412;28;20102;-81
2022/07/14 07:02:35;;;;;;;3.05;0.77;;;;;;;;;;5038928;28;20067;-81
2022/07/14 07:07:45;;;;;;;3.17;0.80;;;;;;;;;;5039956;28;20288;-79
2022/07/14 07:10:11;;;;;;;2.70;0.70;;;;;;;;;;5022881;28;20041;-81
2022/07/14 07:12:37;;;;;;;4.50;0.70;;;;;;;;;;5037070;28;20891;-82
2022/07/14 07:15:03;;;;;;;2.97;0.70;;;;;;;;;;5024660;28;20036;-81
2022/07/14 07:17:28;;;;;;;4.00;0.77;;;;;;;;;;5028971;28;20468;-83
2022/07/14 07:19:53;;;;;;;2.47;0.60;;;;;;;;;;5027731;28;20051;-81
2022/07/14 07:22:19;;;;;;;1.85;0.47;;;;;;;;;;5023210;28;20052;-80
2022/07/14 07:24:44;;;;;;;2.03;0.38;;;;;;;;;;5028206;28;20033;-81
2022/07/14 07:27:09;;;;;;;1.55;0.60;;;;;;;;;;5028631;28;20518;-81
2022/07/14 07:29:36;;;;;;;2.53;0.52;;;;;;;;;;5036654;28;20095;-81
2022/07/14 07:32:01;;;;;;;3.45;0.80;;;;;;;;;;5023794;28;20079;-81
2022/07/14 07:34:27;;;;;;;3.40;0.70;;;;;;;;;;5027520;28;20033;-82
2022/07/14 07:36:52;;;;;;;1.63;0.47;;;;;;;;;;5019182;28;20033;-81
2022/07/14 07:39:18;;;;;;;2.25;0.68;;;;;;;;;;5023476;28;20135;-82
2022/07/14 07:41:45;;;;;;;1.83;0.50;;;;;;;;;;5023626;28;20049;-81
2022/07/14 07:44:11;;;;;;;;;;;;;;;;;;5038088;28;20519;-81
2022/07/14 07:46:36;;;;;;;2.23;0.40;;;;;;;;;;5027138;28;19924;-81
2022/07/14 07:49:01;;;;;;;3.13;0.50;;;;;;;;;;5029833;28;20828;-82
2022/07/14 07:51:27;;;;;;;1.15;0.40;;;;;;;;;;5018518;28;20047;-81
2022/07/14 07:53:53;;;;;;;1.05;0.30;;;;;;;;;;5012747;28;20500;-83
2022/07/14 07:56:18;;;;;;;3.83;0.55;;;;;;;;;;5016947;28;20037;-80
2022/07/14 07:58:43;;;;;;;1.80;0.47;;;;;;;;;;5027620;28;20529;-81
2022/07/14 08:01:09;;;;;;;2.13;0.60;;;;;;;;;;5018914;28;20106;-81
2022/07/14 08:03:35;;;;;;;3.58;0.90;;;;;;;;;;5029215;28;20123;-83
2022/07/14 08:06:02;;;;;;;1.52;0.43;;;;;;;;;;5036973;28;20039;-81
2022/07/14 08:08:28;;;;;;;2.08;0.50;;;;;;;;;;5037062;28;20547;-81
2022/07/14 08:10:53;;;;;;;2.40;0.45;;;;;;;;;;5027164;28;20429;-82
2022/07/14 08:13:19;;;;;;;1.85;0.43;;;;;;;;;;5010532;28;20404;-81
2022/07/14 08:15:44;;;;;;;1.88;0.47;;;;;;;;;;5005223;28;20044;-80
2022/07/14 08:18:10;;;;;;;3.25;0.47;;;;;;;;;;5028323;28;20041;-80
2022/07/14 08:20:35;;;;;;;1.25;0.30;;;;;;;;;;5028050;28;20060;-80
2022/07/14 08:23:02;;;;;;;2.45;0.38;;;;;;;;;;5028759;28;20053;-81
2022/07/14 08:25:28;;;;;;;2.53;0.50;;;;;;;;;;5029982;28;20029;-81
2022/07/14 08:27:53;;;;;;;4.30;0.50;;;;;;;;;;5016220;28;20138;-82
2022/07/14 08:30:19;;;;;;;1.75;0.65;;;;;;;;;;5017768;28;20034;-80
2022/07/14 08:32:49;;;;;;;1.63;0.40;;;;;;;;;;5008795;28;20594;-79
2022/07/14 08:35:20;;;;;;;1.08;0.20;;;;;;;;;;5005101;28;20045;-80
2022/07/14 08:37:46;;;;;;;2.22;0.38;;;;;;;;;;5011965;28;20123;-80
2022/07/14 08:40:13;;;;;;;2.53;0.30;;;;;;;;;;5017453;28;20112;-80
2022/07/14 08:42:42;;;;;;;2.05;0.50;;;;;;;;;;5044176;28;20063;-80
2022/07/14 08:45:10;;;;;;;2.25;0.40;;;;;;;;;;5017439;28;20036;-81
2022/07/14 08:47:36;;;;;;;2.35;0.30;;;;;;;;;;5027840;28;20166;-82
2022/07/14 08:50:03;;;;;;;1.90;0.50;;;;;;;;;;5022375;28;20118;-81
2022/07/14 08:52:29;;;;;;;1.88;0.45;;;;;;;;;;5026235;28;20102;-81
2022/07/14 08:54:54;;;;;;;3.38;0.60;;;;;;;;;;5008837;28;20578;-82
2022/07/14 08:57:20;;;;;;;3.10;0.32;;;;;;;;;;5035783;28;20047;-82
2022/07/14 08:59:45;;;;;;;3.90;0.52;;;;;;;;;;5026706;28;20025;-82
2022/07/14 09:02:10;;;;;;;0.70;0.30;;;;;;;;;;5035510;28;20399;-81
2022/07/14 09:04:36;;;;;;;1.67;0.35;;;;;;;;;;5029217;28;20040;-81
2022/07/14 09:07:01;;;;;;;2.88;0.40;;;;;;;;;;5025130;28;20029;-81
2022/07/14 09:09:34;;;;;;;0.90;0.20;;;;;;;;;;5026615;28;20087;-82
2022/07/14 09:12:05;;;;;;;2.58;0.45;;;;;;;;;;5028181;28;20064;-82
2022/07/14 09:17:25;;;;;;;2.13;0.50;;;;;;;;;;5040315;28;20052;-82
2022/07/14 09:20:09;;;;;;;1.60;0.40;;;;;;;;;;5026070;28;20041;-82
2022/07/14 09:22:36;;;;;;;2.70;0.40;;;;;;;;;;5037622;28;20543;-81
2022/07/14 09:25:04;;;;;;;1.60;0.40;;;;;;;;;;5039195;28;20105;-82
2022/07/14 09:27:33;;;;;;;2.10;0.35;;;;;;;;;;5030684;28;20028;-82
2022/07/14 09:29:58;;;;;;;3.25;0.43;;;;;;;;;;5031719;28;20032;-82
2022/07/14 09:32:42;;;;;;;2.47;0.47;;;;;;;;;;5012844;28;20033;-81
2022/07/14 09:35:08;;;;;;;1.85;0.40;;;;;;;;;;5020333;28;20076;-82
2022/07/14 09:37:37;;;;;;;4.22;0.60;;;;;;;;;;5035267;28;20033;-82
2022/07/14 09:40:03;;;;;;;1.30;0.35;;;;;;;;;;5029914;28;20060;-80
2022/07/14 09:42:59;;;;;;;3.35;0.38;;;;;;;;;;5024620;28;20041;-82
2022/07/14 09:45:27;;;;;;;1.77;0.30;;;;;;;;;;5028954;28;20111;-81
2022/07/14 09:48:13;;;;;;;1.67;0.47;;;;;;;;;;5029444;28;20482;-82
2022/07/14 09:50:55;;;;;;;1.75;0.45;;;;;;;;;;5020349;28;20455;-82
2022/07/14 09:53:31;;;;;;;2.03;0.30;;;;;;;;;;5023064;28;20123;-81
2022/07/14 09:56:15;;;;;;;1.50;0.20;;;;;;;;;;5018587;28;20559;-83
2022/07/14 09:58:54;;;;;;;1.42;0.30;;;;;;;;;;5012473;28;20871;-81
2022/07/14 10:01:21;;;;;;;2.03;0.30;;;;;;;;;;5041643;28;20037;-81
2022/07/14 10:03:48;;;;;;;1.50;0.20;;;;;;;;;;5029052;28;20048;-81
2022/07/14 10:06:14;;;;;;;0.98;0.20;;;;;;;;;;5039609;28;20455;-80
2022/07/14 10:08:43;;;;;;;1.20;0.30;;;;;;;;;;5035208;28;20452;-82
2022/07/14 10:11:10;;;;;;;1.38;0.30;;;;;;;;;;5023668;28;20044;-82
2022/07/14 10:13:36;;;;;;;1.85;0.35;;;;;;;;;;5029851;28;20033;-83
2022/07/14 10:16:02;;;;;;;0.93;0.20;;;;;;;;;;5029848;28;20040;-82
2022/07/14 10:18:27;;;;;;;1.20;0.20;;;;;;;;;;5030877;28;20036;-81
2022/07/14 10:20:57;;;;;;;1.40;0.20;;;;;;;;;;5028963;28;20037;-80
2022/07/14 10:23:22;;;;;;;3.25;0.55;;;;;;;;;;5038352;28;20041;-80
2022/07/14 10:25:53;;;;;;;1.93;0.30;;;;;;;;;;5025090;28;20029;-81
2022/07/14 10:28:19;;;;;;;1.95;0.20;;;;;;;;;;5020483;28;20043;-81
2022/07/14 10:31:22;;;;;;;0.63;0.10;;;;;;;;;;5030551;28;20040;-81
2022/07/14 10:34:21;;;;;;;0.98;0.28;;;;;;;;;;5039950;28;20071;-81
2022/07/14 10:37:11;;;;;;;2.33;0.40;;;;;;;;;;5053088;28;20029;-81
2022/07/14 10:39:50;;;;;;;1.67;0.43;;;;;;;;;;5026699;28;20115;-82
2022/07/14 10:42:37;;;;;;;1.30;0.20;;;;;;;;;;5021752;28;20063;-81
2022/07/14 10:45:03;;;;;;;0.95;0.30;;;;;;;;;;5044869;28;20445;-82
2022/07/14 10:47:49;;;;;;;;;;;;;;;;;;5024428;28;20067;-82
2022/07/14 10:50:26;;;;;;;1.98;0.17;;;;;;;;;;5035699;28;19964;-80
2022/07/14 10:52:54;;;;;;;0.80;0.10;;;;;;;;;;5000808;28;20068;-81
2022/07/14 10:55:22;;;;;;;2.05;0.30;;;;;;;;;;5009284;28;20053;-81
2022/07/14 10:57:59;;;;;;;0.70;0.13;;;;;;;;;;5013364;28;20181;-81
2022/07/14 11:00:55;;;;;;;1.08;0.30;;;;;;;;;;5014398;28;20046;-80
2022/07/14 11:03:24;;;;;;;0.30;0.10;;;;;;;;;;5015019;28;20222;-80
2022/07/14 11:06:03;;;;;;;1.00;0.20;;;;;;;;;;4997960;28;20044;-80
2022/07/14 11:08:29;;;;;;;0.98;0.20;;;;;;;;;;5013929;28;20033;-80
2022/07/14 11:10:57;;;;;;;0.63;0.10;;;;;;;;;;5011806;28;20084;-81
2022/07/14 11:13:23;;;;;;;1.88;0.40;;;;;;;;;;4997909;28;20084;-82
2022/07/14 11:15:52;;;;;;;0.67;0.10;;;;;;;;;;4979846;28;20053;-81
2022/07/14 11:18:18;;;;;;;0.90;0.10;;;;;;;;;;4998199;28;20122;-82
2022/07/14 11:20:51;;;;;;;3.43;0.20;;;;;;;;;;5010428;28;20041;-80
2022/07/14 11:23:21;;;;;;;4.68;0.30;;;;;;;;;;4996929;28;20050;-81
2022/07/14 11:25:48;;;;;;;1.38;0.22;;;;;;;;;;4990470;28;21518;-82
2022/07/14 11:28:37;;;;;;;1.13;0.13;;;;;;;;;;5003427;28;20096;-81
2022/07/14 11:31:18;;;;;;;1.60;0.40;;;;;;;;;;5018968;28;20158;-83
2022/07/14 11:36:30;;;;;;;2.38;0.20;;;;;;;;;;5029486;28;20044;-82
2022/07/14 11:39:18;;;;;;;2.25;0.30;;;;;;;;;;5014775;28;20060;-81
2022/07/14 11:41:48;;;;;;;1.83;0.38;;;;;;;;;;4993832;28;20038;-81
2022/07/14 11:44:41;;;;;;;0.90;0.17;;;;;;;;;;4994349;28;20513;-82
2022/07/14 11:47:24;;;;;;;0.73;0.20;;;;;;;;;;5021927;28;20050;-83
2022/07/14 11:49:53;;;;;;;2.42;0.20;;;;;;;;;;5004807;28;20782;-82
2022/07/14 11:52:24;;;;;;;1.92;0.45;;;;;;;;;;5036161;28;20049;-81
2022/07/14 11:54:54;;;;;;;1.60;0.25;;;;;;;;;;5041603;28;20563;-81
2022/07/14 11:57:21;;;;;;;0.98;0.20;;;;;;;;;;5012371;28;20034;-81
2022/07/14 11:59:46;;;;;;;1.65;0.30;;;;;;;;;;4996959;28;20453;-80
2022/07/14 12:02:17;;;;;;;1.60;0.30;;;;;;;;;;5016330;28;20112;-80
2022/07/14 12:04:49;;;;;;;1.85;0.20;;;;;;;;;;5035203;28;20404;-80
2022/07/14 12:07:14;;;;;;;1.23;0.20;;;;;;;;;;5033705;28;20686;-81
2022/07/14 12:09:40;;;;;;;0.47;0.10;;;;;;;;;;5049959;28;20167;-81
2022/07/14 12:12:06;;;;;;;0.98;0.22;;;;;;;;;;5024270;28;20141;-80
2022/07/14 12:14:33;;;;;;;1.55;0.20;;;;;;;;;;5025421;28;20512;-81
2022/07/14 12:16:58;;;;;;;1.23;0.20;;;;;;;;;;5040332;28;20485;-80
2022/07/14 12:19:28;;;;;;;0.63;0.13;;;;;;;;;;5012914;28;20265;-80
2022/07/14 12:21:59;;;;;;;0.65;0.20;;;;;;;;;;5029617;28;20400;-80
2022/07/14 12:24:26;;;;;;;0.50;0.20;;;;;;;;;;5023156;28;20034;-81
2022/07/14 12:26:51;;;;;;;3.92;0.57;;;;;;;;;;5011020;28;20048;-81
2022/07/14 12:29:17;;;;;;;1.13;0.20;;;;;;;;;;5018694;28;20045;-81
2022/07/14 12:31:42;;;;;;;1.98;0.32;;;;;;;;;;5023678;28;20037;-81
2022/07/14 12:34:08;;;;;;;2.03;0.45;;;;;;;;;;5020621;28;20059;-79
2022/07/14 12:36:34;;;;;;;2.10;0.43;;;;;;;;;;5010502;28;20489;-82
2022/07/14 12:39:03;;;;;;;3.92;0.50;;;;;;;;;;5016862;28;20041;-82
2022/07/14 12:41:28;;;;;;;1.42;0.28;;;;;;;;;;5037208;28;20039;-81
2022/07/14 12:43:56;;;;;;;2.10;0.30;;;;;;;;;;5029573;28;20029;-81
2022/07/14 12:46:23;;;;;;;0.47;0.10;;;;;;;;;;5031490;28;20037;-83
2022/07/14 12:48:48;;;;;;;2.75;0.40;;;;;;;;;;5021854;28;20489;-81
2022/07/14 12:51:16;;;;;;;4.40;0.30;;;;;;;;;;5026668;28;20055;-81
2022/07/14 12:54:02;;;;;;;1.63;0.28;;;;;;;;;;5034920;28;20037;-81
2022/07/14 12:56:32;;;;;;;1.38;0.28;;;;;;;;;;5028835;28;20091;-82
2022/07/14 12:59:00;;;;;;;2.78;0.40;;;;;;;;;;5012706;28;20038;-81
2022/07/14 13:01:27;;;;;;;1.05;0.13;;;;;;;;;;5007061;28;20049;-81
2022/07/14 13:03:57;;;;;;;1.58;0.17;;;;;;;;;;5008201;28;20056;-81
2022/07/14 13:06:23;;;;;;;1.60;0.30;;;;;;;;;;5028854;28;20047;-82
2022/07/14 13:08:49;;;;;;;1.83;0.52;;;;;;;;;;5038402;28;20033;-81
2022/07/14 13:11:14;;;;;;;0.32;0.10;;;;;;;;;;5034253;28;20366;-82
2022/07/14 13:13:50;;;;;;;0.90;0.10;;;;;;;;;;5027489;28;20037;-81
2022/07/14 13:16:24;;;;;;;0.20;0.10;;;;;;;;;;5035266;28;20029;-83
2022/07/14 13:19:03;;;;;;;2.35;0.43;;;;;;;;;;5045251;28;20037;-81
2022/07/14 13:21:50;;;;;;;1.33;0.38;;;;;;;;;;5029139;28;20049;-81
2022/07/14 13:24:21;;;;;;;1.77;0.28;;;;;;;;;;5026033;28;20535;-83
2022/07/14 13:27:06;;;;;;;0.52;0.15;;;;;;;;;;5021456;28;20480;-82
2022/07/14 13:29:38;;;;;;;1.33;0.22;;;;;;;;;;5009639;28;20034;-82
2022/07/14 13:32:04;;;;;;;1.10;0.22;;;;;;;;;;5018698;28;20029;-82
2022/07/14 13:34:30;;;;;;;1.05;0.20;;;;;;;;;;5020899;28;20045;-82
2022/07/14 13:36:56;;;;;;;1.10;0.20;;;;;;;;;;5021898;28;20120;-82
2022/07/14 13:39:23;;;;;;;1.52;0.30;;;;;;;;;;5034340;28;20036;-83
2022/07/14 13:41:49;;;;;;;0.93;0.30;;;;;;;;;;5020521;28;20120;-82
2022/07/14 13:44:16;;;;;;;1.33;0.20;;;;;;;;;;5021774;28;20137;-82
2022/07/14 13:46:42;;;;;;;0.32;0.20;;;;;;;;;;5026365;28;20059;-82
2022/07/14 13:49:07;;;;;;;0.63;0.10;;;;;;;;;;5021162;28;20061;-83
2022/07/14 13:54:16;;;;;;;1.88;0.32;;;;;;;;;;5033708;28;20523;-82
2022/07/14 13:56:41;;;;;;;0.90;0.20;;;;;;;;;;5035634;28;20032;-83
2022/07/14 13:59:10;;;;;;;1.90;0.80;;;;;;;;;;5020031;28;20065;-83
2022/07/14 14:01:36;;;;;;;4.60;0.65;;;;;;;;;;5019091;28;20806;-82
2022/07/14 14:04:02;;;;;;;1.38;0.20;;;;;;;;;;5034545;28;20037;-82
2022/07/14 14:06:28;;;;;;;0.60;0.20;;;;;;;;;;5037332;28;20039;-81
2022/07/14 14:08:53;;;;;;;1.10;0.20;;;;;;;;;;5019214;28;20029;-82
2022/07/14 14:11:19;;;;;;;1.20;0.30;;;;;;;;;;5026000;28;20141;-83
2022/07/14 14:13:45;;;;;;;0.95;0.20;;;;;;;;;;5033215;28;20037;-83
2022/07/14 14:16:10;;;;;;;0.40;0.10;;;;;;;;;;5019086;28;20079;-82
2022/07/14 14:18:36;;;;;;;0.98;0.20;;;;;;;;;;5028293;28;20036;-81
2022/07/14 14:21:03;;;;;;;1.45;0.30;;;;;;;;;;5042342;28;20041;-82
2022/07/14 14:23:29;;;;;;;1.23;0.28;;;;;;;;;;5028283;28;20055;-81
2022/07/14 14:25:54;;;;;;;3.03;0.77;;;;;;;;;;5034416;28;20789;-82
2022/07/14 14:28:20;;;;;;;1.13;0.22;;;;;;;;;;5027428;28;20120;-81
2022/07/14 14:30:46;;;;;;;4.95;0.30;;;;;;;;;;5026231;28;20055;-82
2022/07/14 14:33:11;;;;;;;0.50;0.10;;;;;;;;;;5032252;28;20483;-81
2022/07/14 14:35:37;;;;;;;0.88;0.20;;;;;;;;;;5025903;28;20028;-81
2022/07/14 14:38:02;;;;;;;2.30;0.30;;;;;;;;;;5034493;28;20037;-82
2022/07/14 14:40:28;;;;;;;1.20;0.30;;;;;;;;;;5027126;28;20149;-82
2022/07/14 14:42:54;;;;;;;0.65;0.13;;;;;;;;;;5015719;28;20034;-82
2022/07/14 14:45:19;;;;;;;0.38;0.10;;;;;;;;;;5005620;28;20053;-82
2022/07/14 14:47:45;;;;;;;0.90;0.28;;;;;;;;;;5019746;28;20157;-82
2022/07/14 14:50:11;;;;;;;1.23;0.35;;;;;;;;;;5003975;28;20041;-82
2022/07/14 14:52:37;;;;;;;0.80;0.13;;;;;;;;;;5026068;28;20479;-83
2022/07/14 14:55:04;;;;;;;1.92;0.28;;;;;;;;;;5034082;28;20095;-82
2022/07/14 14:57:29;;;;;;;0.20;0.10;;;;;;;;;;5022518;28;20067;-82
2022/07/14 14:59:55;;;;;;;1.85;0.32;;;;;;;;;;5031623;28;20508;-83
2022/07/14 15:02:22;;;;;;;3.95;0.40;;;;;;;;;;5024948;28;20038;-82